sensor_id;sensor_type;location;lat;lon;timestamp;pressure;altitude;pressure_sealevel;temperature;humidity
23261;BME280;11799;47.740;-3.390;2023-08-17T00:00:25;101552.25;;;18.34;100.00
23261;BME280;11799;47.740;-3.390;2023-08-17T00:02:50;101554.09;;;18.34;100.00
23261;BME280;11799;47.740;-3.390;2023-08-17T00:05:16;101553.09;;;18.35;100.00
23261;BME280;11799;47.740;-3.390;2023-08-17T00:07:41;101549.19;;;18.29;100.00
23261;BME280;11799;47.740;-3.390;2023-08-17T00:10:07;101551.03;;;18.29;100.00
23261;BME280;11799;47.740;-3.390;2023-08-17T00:12:33;101555.69;;;18.27;100.00
23261;BME280;11799;47.740;-3.390;2023-08-17T00:14:58;101557.22;;;18.29;100.00
23261;BME280;11799;47.740;-3.390;2023-08-17T00:17:24;101548.34;;;18.29;100.00
23261;BME280;11799;47.740;-3.390;2023-08-17T00:19:50;101554.53;;;18.29;100.00
23261;BME280;11799;47.740;-3.390;2023-08-17T00:22:15;101544.16;;;18.26;100.00
23261;BME280;11799;47.740;-3.390;2023-08-17T00:24:42;101530.53;;;18.20;100.00
23261;BME280;11799;47.740;-3.390;2023-08-17T00:27:09;101533.38;;;18.18;100.00
23261;BME280;11799;47.740;-3.390;2023-08-17T00:29:35;101537.72;;;18.19;100.00
23261;BME280;11799;47.740;-3.390;2023-08-17T00:32:02;101537.88;;;18.18;100.00
23261;BME280;11799;47.740;-3.390;2023-08-17T00:34:27;101531.00;;;18.15;100.00
23261;BME280;11799;47.740;-3.390;2023-08-17T00:36:53;101534.91;;;18.21;100.00
23261;BME280;11799;47.740;-3.390;2023-08-17T00:39:18;101539.41;;;18.20;100.00
23261;BME280;11799;47.740;-3.390;2023-08-17T00:41:45;101544.91;;;18.19;100.00
23261;BME280;11799;47.740;-3.390;2023-08-17T00:44:12;101542.38;;;18.17;100.00
23261;BME280;11799;47.740;-3.390;2023-08-17T00:46:38;101536.03;;;18.18;100.00
23261;BME280;11799;47.740;-3.390;2023-08-17T00:49:04;101534.50;;;18.15;100.00
23261;BME280;11799;47.740;-3.390;2023-08-17T00:51:31;101538.88;;;18.17;100.00
23261;BME280;11799;47.740;-3.390;2023-08-17T00:53:59;101531.69;;;18.17;100.00
23261;BME280;11799;47.740;-3.390;2023-08-17T00:56:26;101532.97;;;18.13;100.00
23261;BME280;11799;47.740;-3.390;2023-08-17T00:58:52;101533.66;;;18.15;100.00
23261;BME280;11799;47.740;-3.390;2023-08-17T01:01:19;101527.78;;;18.11;100.00
23261;BME280;11799;47.740;-3.390;2023-08-17T01:03:45;101534.28;;;18.09;100.00
23261;BME280;11799;47.740;-3.390;2023-08-17T01:06:12;101543.44;;;18.06;100.00
23261;BME280;11799;47.740;-3.390;2023-08-17T01:08:38;101529.75;;;18.09;100.00
23261;BME280;11799;47.740;-3.390;2023-08-17T01:11:22;101533.44;;;18.08;100.00
23261;BME280;11799;47.740;-3.390;2023-08-17T01:16:31;101525.09;;;18.11;100.00
23261;BME280;11799;47.740;-3.390;2023-08-17T01:19:00;101519.53;;;18.05;100.00
23261;BME280;11799;47.740;-3.390;2023-08-17T01:21:36;101508.59;;;17.98;100.00
23261;BME280;11799;47.740;-3.390;2023-08-17T01:24:04;101501.34;;;17.91;100.00
23261;BME280;11799;47.740;-3.390;2023-08-17T01:26:30;101516.16;;;18.03;100.00
23261;BME280;11799;47.740;-3.390;2023-08-17T01:28:55;101517.00;;;18.03;100.00
23261;BME280;11799;47.740;-3.390;2023-08-17T01:31:27;101515.03;;;18.05;100.00
23261;BME280;11799;47.740;-3.390;2023-08-17T01:34:09;101507.84;;;18.06;100.00
23261;BME280;11799;47.740;-3.390;2023-08-17T01:36:39;101506.63;;;18.00;100.00
23261;BME280;11799;47.740;-3.390;2023-08-17T01:39:08;101508.84;;;18.05;100.00
23261;BME280;11799;47.740;-3.390;2023-08-17T01:41:35;101513.34;;;18.04;100.00
23261;BME280;11799;47.740;-3.390;2023-08-17T01:44:02;101508.00;;;18.04;100.00
23261;BME280;11799;47.740;-3.390;2023-08-17T01:46:31;101508.84;;;18.05;100.00
23261;BME280;11799;47.740;-3.390;2023-08-17T01:48:59;101508.16;;;18.03;100.00
23261;BME280;11799;47.740;-3.390;2023-08-17T01:51:25;101506.63;;;18.00;100.00
23261;BME280;11799;47.740;-3.390;2023-08-17T01:53:51;101497.75;;;18.00;100.00
23261;BME280;11799;47.740;-3.390;2023-08-17T01:56:17;101495.94;;;18.00;100.00
23261;BME280;11799;47.740;-3.390;2023-08-17T01:58:44;101503.09;;;18.00;100.00
23261;BME280;11799;47.740;-3.390;2023-08-17T02:01:09;101495.38;;;17.97;100.00
23261;BME280;11799;47.740;-3.390;2023-08-17T02:03:35;101498.22;;;17.95;100.00
23261;BME280;11799;47.740;-3.390;2023-08-17T02:06:01;101491.03;;;17.96;100.00
23261;BME280;11799;47.740;-3.390;2023-08-17T02:08:26;101481.19;;;17.96;100.00
23261;BME280;11799;47.740;-3.390;2023-08-17T02:10:53;101482.19;;;17.95;100.00
23261;BME280;11799;47.740;-3.390;2023-08-17T02:13:20;101482.03;;;17.97;100.00
23261;BME280;11799;47.740;-3.390;2023-08-17T02:15:46;101474.47;;;17.92;100.00
23261;BME280;11799;47.740;-3.390;2023-08-17T02:18:12;101475.00;;;17.96;100.00
23261;BME280;11799;47.740;-3.390;2023-08-17T02:20:38;101475.84;;;17.96;100.00
23261;BME280;11799;47.740;-3.390;2023-08-17T02:23:03;101478.81;;;17.93;100.00
23261;BME280;11799;47.740;-3.390;2023-08-17T02:25:29;101464.75;;;17.91;100.00
23261;BME280;11799;47.740;-3.390;2023-08-17T02:28:01;101462.41;;;17.88;100.00
23261;BME280;11799;47.740;-3.390;2023-08-17T02:30:27;101461.28;;;17.91;100.00
23261;BME280;11799;47.740;-3.390;2023-08-17T02:32:53;101468.28;;;17.92;100.00
23261;BME280;11799;47.740;-3.390;2023-08-17T02:35:18;101460.44;;;17.90;100.00
23261;BME280;11799;47.740;-3.390;2023-08-17T02:37:44;101465.41;;;17.85;100.00
23261;BME280;11799;47.740;-3.390;2023-08-17T02:40:10;101454.84;;;17.84;100.00
23261;BME280;11799;47.740;-3.390;2023-08-17T02:42:35;101459.06;;;17.86;100.00
23261;BME280;11799;47.740;-3.390;2023-08-17T02:45:01;101451.34;;;17.83;100.00
23261;BME280;11799;47.740;-3.390;2023-08-17T02:47:28;101460.06;;;17.85;100.00
23261;BME280;11799;47.740;-3.390;2023-08-17T02:49:54;101447.00;;;17.82;100.00
23261;BME280;11799;47.740;-3.390;2023-08-17T02:52:19;101448.97;;;17.80;100.00
23261;BME280;11799;47.740;-3.390;2023-08-17T02:54:45;101447.97;;;17.81;100.00
23261;BME280;11799;47.740;-3.390;2023-08-17T02:57:11;101457.38;;;17.85;100.00
23261;BME280;11799;47.740;-3.390;2023-08-17T02:59:36;101459.06;;;17.86;100.00
23261;BME280;11799;47.740;-3.390;2023-08-17T03:02:02;101447.84;;;17.83;100.00
23261;BME280;11799;47.740;-3.390;2023-08-17T03:04:27;101434.78;;;17.79;100.00
23261;BME280;11799;47.740;-3.390;2023-08-17T03:06:55;101439.28;;;17.79;100.00
23261;BME280;11799;47.740;-3.390;2023-08-17T03:09:20;101442.09;;;17.77;100.00
23261;BME280;11799;47.740;-3.390;2023-08-17T03:11:46;101431.19;;;17.71;100.00
23261;BME280;11799;47.740;-3.390;2023-08-17T03:14:11;101441.72;;;17.72;100.00
23261;BME280;11799;47.740;-3.390;2023-08-17T03:16:37;101435.69;;;17.70;100.00
23261;BME280;11799;47.740;-3.390;2023-08-17T03:19:03;101435.81;;;17.69;100.00
23261;BME280;11799;47.740;-3.390;2023-08-17T03:21:31;101442.84;;;17.70;100.00
23261;BME280;11799;47.740;-3.390;2023-08-17T03:23:56;101444.00;;;17.67;100.00
23261;BME280;11799;47.740;-3.390;2023-08-17T03:26:22;101429.94;;;17.65;100.00
23261;BME280;11799;47.740;-3.390;2023-08-17T03:28:48;101424.59;;;17.65;100.00
23261;BME280;11799;47.740;-3.390;2023-08-17T03:31:14;101431.91;;;17.63;100.00
23261;BME280;11799;47.740;-3.390;2023-08-17T03:33:39;101427.38;;;17.64;100.00
23261;BME280;11799;47.740;-3.390;2023-08-17T03:36:06;101417.69;;;17.63;100.00
23261;BME280;11799;47.740;-3.390;2023-08-17T03:38:31;101414.34;;;17.61;100.00
23261;BME280;11799;47.740;-3.390;2023-08-17T03:40:57;101420.66;;;17.60;100.00
23261;BME280;11799;47.740;-3.390;2023-08-17T03:43:23;101426.69;;;17.62;100.00
23261;BME280;11799;47.740;-3.390;2023-08-17T03:45:48;101425.72;;;17.63;100.00
23261;BME280;11799;47.740;-3.390;2023-08-17T03:48:14;101423.34;;;17.60;100.00
23261;BME280;11799;47.740;-3.390;2023-08-17T03:50:39;101421.50;;;17.60;100.00
23261;BME280;11799;47.740;-3.390;2023-08-17T03:53:05;101415.19;;;17.61;100.00
23261;BME280;11799;47.740;-3.390;2023-08-17T03:55:31;101424.19;;;17.60;100.00
23261;BME280;11799;47.740;-3.390;2023-08-17T03:57:56;101415.31;;;17.60;100.00
23261;BME280;11799;47.740;-3.390;2023-08-17T04:00:22;101414.94;;;17.55;100.00
23261;BME280;11799;47.740;-3.390;2023-08-17T04:02:54;101417.59;;;17.55;100.00
23261;BME280;11799;47.740;-3.390;2023-08-17T04:05:19;101421.97;;;17.56;100.00
23261;BME280;11799;47.740;-3.390;2023-08-17T04:07:45;101414.25;;;17.53;100.00
23261;BME280;11799;47.740;-3.390;2023-08-17T04:10:13;101417.22;;;17.49;100.00
23261;BME280;11799;47.740;-3.390;2023-08-17T04:12:38;101411.72;;;17.51;100.00
23261;BME280;11799;47.740;-3.390;2023-08-17T04:15:04;101416.38;;;17.49;100.00
23261;BME280;11799;47.740;-3.390;2023-08-17T04:17:30;101411.72;;;17.51;100.00
23261;BME280;11799;47.740;-3.390;2023-08-17T04:19:56;101409.19;;;17.49;100.00
23261;BME280;11799;47.740;-3.390;2023-08-17T04:22:21;101406.53;;;17.49;100.00
23261;BME280;11799;47.740;-3.390;2023-08-17T04:24:47;101413.84;;;17.47;100.00
23261;BME280;11799;47.740;-3.390;2023-08-17T04:27:13;101414.69;;;17.48;100.00
23261;BME280;11799;47.740;-3.390;2023-08-17T04:29:39;101419.03;;;17.49;100.00
23261;BME280;11799;47.740;-3.390;2023-08-17T04:32:06;101416.66;;;17.46;100.00
23261;BME280;11799;47.740;-3.390;2023-08-17T04:34:31;101405.44;;;17.42;100.00
23261;BME280;11799;47.740;-3.390;2023-08-17T04:36:57;101413.00;;;17.47;100.00
23261;BME280;11799;47.740;-3.390;2023-08-17T04:39:22;101412.31;;;17.45;100.00
23261;BME280;11799;47.740;-3.390;2023-08-17T04:41:49;101418.09;;;17.40;100.00
23261;BME280;11799;47.740;-3.390;2023-08-17T04:44:20;101415.13;;;17.43;100.00
23261;BME280;11799;47.740;-3.390;2023-08-17T04:46:45;101411.78;;;17.41;100.00
23261;BME280;11799;47.740;-3.390;2023-08-17T04:49:11;101406.44;;;17.41;100.00
23261;BME280;11799;47.740;-3.390;2023-08-17T04:51:36;101408.13;;;17.42;100.00
23261;BME280;11799;47.740;-3.390;2023-08-17T04:54:02;101402.78;;;17.42;100.00
23261;BME280;11799;47.740;-3.390;2023-08-17T04:56:28;101403.47;;;17.44;100.00
23261;BME280;11799;47.740;-3.390;2023-08-17T04:58:54;101394.63;;;17.44;100.00
23261;BME280;11799;47.740;-3.390;2023-08-17T05:01:19;101393.78;;;17.43;100.00
23261;BME280;11799;47.740;-3.390;2023-08-17T05:03:45;101399.13;;;17.43;100.00
23261;BME280;11799;47.740;-3.390;2023-08-17T05:06:11;101398.28;;;17.43;100.00
23261;BME280;11799;47.740;-3.390;2023-08-17T05:08:37;101395.75;;;17.41;100.00
23261;BME280;11799;47.740;-3.390;2023-08-17T05:11:02;101394.91;;;17.41;100.00
23261;BME280;11799;47.740;-3.390;2023-08-17T05:13:28;101394.06;;;17.40;100.00
23261;BME280;11799;47.740;-3.390;2023-08-17T05:15:57;101397.59;;;17.41;100.00
23261;BME280;11799;47.740;-3.390;2023-08-17T05:18:23;101393.22;;;17.40;100.00
23261;BME280;11799;47.740;-3.390;2023-08-17T05:20:49;101394.22;;;17.39;100.00
23261;BME280;11799;47.740;-3.390;2023-08-17T05:23:14;101391.69;;;17.37;100.00
23261;BME280;11799;47.740;-3.390;2023-08-17T05:25:40;101399.72;;;17.37;100.00
23261;BME280;11799;47.740;-3.390;2023-08-17T05:28:06;101397.34;;;17.34;100.00
23261;BME280;11799;47.740;-3.390;2023-08-17T05:30:32;101383.78;;;17.28;100.00
23261;BME280;11799;47.740;-3.390;2023-08-17T05:32:58;101392.00;;;17.34;100.00
23261;BME280;11799;47.740;-3.390;2023-08-17T05:35:24;101398.03;;;17.36;100.00
23261;BME280;11799;47.740;-3.390;2023-08-17T05:37:49;101387.50;;;17.35;100.00
23261;BME280;11799;47.740;-3.390;2023-08-17T05:40:15;101389.19;;;17.36;100.00
23261;BME280;11799;47.740;-3.390;2023-08-17T05:42:40;101388.19;;;17.37;100.00
23261;BME280;11799;47.740;-3.390;2023-08-17T05:45:06;101380.19;;;17.37;100.00
23261;BME280;11799;47.740;-3.390;2023-08-17T05:47:33;101384.38;;;17.39;100.00
23261;BME280;11799;47.740;-3.390;2023-08-17T05:49:58;101385.38;;;17.38;100.00
23261;BME280;11799;47.740;-3.390;2023-08-17T05:52:24;101380.88;;;17.39;100.00
23261;BME280;11799;47.740;-3.390;2023-08-17T05:54:49;101378.91;;;17.41;100.00
23261;BME280;11799;47.740;-3.390;2023-08-17T05:57:15;101383.09;;;17.43;100.00
23261;BME280;11799;47.740;-3.390;2023-08-17T05:59:40;101380.28;;;17.45;100.00
23261;BME280;11799;47.740;-3.390;2023-08-17T06:02:06;101378.75;;;17.42;100.00
23261;BME280;11799;47.740;-3.390;2023-08-17T06:04:31;101375.09;;;17.43;100.00
23261;BME280;11799;47.740;-3.390;2023-08-17T06:06:57;101370.28;;;17.47;100.00
23261;BME280;11799;47.740;-3.390;2023-08-17T06:09:23;101374.94;;;17.45;100.00
23261;BME280;11799;47.740;-3.390;2023-08-17T06:11:48;101373.66;;;17.49;100.00
23261;BME280;11799;47.740;-3.390;2023-08-17T06:14:14;101378.84;;;17.50;100.00
23261;BME280;11799;47.740;-3.390;2023-08-17T06:16:39;101369.00;;;17.51;100.00
23261;BME280;11799;47.740;-3.390;2023-08-17T06:19:05;101371.53;;;17.53;100.00
23261;BME280;11799;47.740;-3.390;2023-08-17T06:21:30;101376.72;;;17.54;100.00
23261;BME280;11799;47.740;-3.390;2023-08-17T06:23:56;101373.06;;;17.55;100.00
23261;BME280;11799;47.740;-3.390;2023-08-17T06:26:22;101375.56;;;17.57;100.00
23261;BME280;11799;47.740;-3.390;2023-08-17T06:28:47;101374.56;;;17.58;100.00
23261;BME280;11799;47.740;-3.390;2023-08-17T06:31:16;101379.63;;;17.61;100.00
23261;BME280;11799;47.740;-3.390;2023-08-17T06:33:41;101389.00;;;17.65;100.00
23261;BME280;11799;47.740;-3.390;2023-08-17T06:36:07;101387.22;;;17.65;100.00
23261;BME280;11799;47.740;-3.390;2023-08-17T06:38:33;101373.72;;;17.67;100.00
23261;BME280;11799;47.740;-3.390;2023-08-17T06:40:58;101380.44;;;17.71;100.00
23261;BME280;11799;47.740;-3.390;2023-08-17T06:43:24;101370.44;;;17.73;100.00
23261;BME280;11799;47.740;-3.390;2023-08-17T06:45:49;101374.78;;;17.74;100.00
23261;BME280;11799;47.740;-3.390;2023-08-17T06:48:15;101373.63;;;17.76;100.00
23261;BME280;11799;47.740;-3.390;2023-08-17T06:50:40;101376.53;;;17.83;100.00
23261;BME280;11799;47.740;-3.390;2023-08-17T06:53:07;101376.09;;;17.88;100.00
23261;BME280;11799;47.740;-3.390;2023-08-17T06:55:32;101373.91;;;17.91;100.00
23261;BME280;11799;47.740;-3.390;2023-08-17T06:57:58;101376.97;;;17.96;100.00
23261;BME280;11799;47.740;-3.390;2023-08-17T07:00:24;101374.00;;;17.99;100.00
23261;BME280;11799;47.740;-3.390;2023-08-17T07:02:50;101366.81;;;18.00;100.00
23261;BME280;11799;47.740;-3.390;2023-08-17T07:05:15;101377.41;;;18.09;100.00
23261;BME280;11799;47.740;-3.390;2023-08-17T07:07:41;101371.59;;;18.14;100.00
23261;BME280;11799;47.740;-3.390;2023-08-17T07:10:08;101371.97;;;18.19;100.00
23261;BME280;11799;47.740;-3.390;2023-08-17T07:12:34;101366.31;;;18.22;100.00
23261;BME280;11799;47.740;-3.390;2023-08-17T07:14:59;101369.38;;;18.27;100.00
23261;BME280;11799;47.740;-3.390;2023-08-17T07:17:25;101362.72;;;18.31;100.00
23261;BME280;11799;47.740;-3.390;2023-08-17T07:19:50;101355.69;;;18.30;100.00
23261;BME280;11799;47.740;-3.390;2023-08-17T07:22:16;101364.69;;;18.47;100.00
23261;BME280;11799;47.740;-3.390;2023-08-17T07:24:42;101354.13;;;18.45;100.00
23261;BME280;11799;47.740;-3.390;2023-08-17T07:27:07;101360.88;;;18.58;100.00
23261;BME280;11799;47.740;-3.390;2023-08-17T07:29:33;101365.78;;;18.62;100.00
23261;BME280;11799;47.740;-3.390;2023-08-17T07:31:59;101358.97;;;18.68;100.00
23261;BME280;11799;47.740;-3.390;2023-08-17T07:34:28;101364.72;;;18.81;100.00
23261;BME280;11799;47.740;-3.390;2023-08-17T07:36:55;101354.78;;;18.99;100.00
23261;BME280;11799;47.740;-3.390;2023-08-17T07:39:21;101344.63;;;19.19;100.00
23261;BME280;11799;47.740;-3.390;2023-08-17T07:41:46;101344.66;;;19.35;100.00
23261;BME280;11799;47.740;-3.390;2023-08-17T07:44:12;101344.19;;;19.48;100.00
23261;BME280;11799;47.740;-3.390;2023-08-17T07:46:37;101343.59;;;19.62;100.00
23261;BME280;11799;47.740;-3.390;2023-08-17T07:49:03;101344.91;;;19.74;100.00
23261;BME280;11799;47.740;-3.390;2023-08-17T07:51:29;101337.56;;;19.85;100.00
23261;BME280;11799;47.740;-3.390;2023-08-17T07:53:57;101336.72;;;19.92;100.00
23261;BME280;11799;47.740;-3.390;2023-08-17T07:56:23;101335.22;;;20.06;100.00
23261;BME280;11799;47.740;-3.390;2023-08-17T07:58:49;101342.59;;;20.20;100.00
23261;BME280;11799;47.740;-3.390;2023-08-17T08:01:14;101334.34;;;20.30;100.00
23261;BME280;11799;47.740;-3.390;2023-08-17T08:03:40;101336.03;;;20.39;100.00
23261;BME280;11799;47.740;-3.390;2023-08-17T08:06:05;101334.00;;;20.49;100.00
23261;BME280;11799;47.740;-3.390;2023-08-17T08:08:31;101342.19;;;20.64;100.00
23261;BME280;11799;47.740;-3.390;2023-08-17T08:10:57;101334.25;;;20.79;100.00
23261;BME280;11799;47.740;-3.390;2023-08-17T08:13:23;101336.53;;;20.90;100.00
23261;BME280;11799;47.740;-3.390;2023-08-17T08:15:49;101339.13;;;21.14;100.00
23261;BME280;11799;47.740;-3.390;2023-08-17T08:18:15;101333.44;;;21.40;100.00
23261;BME280;11799;47.740;-3.390;2023-08-17T08:20:40;101336.31;;;21.38;100.00
23261;BME280;11799;47.740;-3.390;2023-08-17T08:23:06;101336.13;;;21.40;100.00
23261;BME280;11799;47.740;-3.390;2023-08-17T08:25:31;101322.03;;;21.38;100.00
23261;BME280;11799;47.740;-3.390;2023-08-17T08:27:57;101332.56;;;21.48;100.00
23261;BME280;11799;47.740;-3.390;2023-08-17T08:30:22;101320.13;;;21.47;100.00
23261;BME280;11799;47.740;-3.390;2023-08-17T08:32:48;101319.59;;;21.51;100.00
23261;BME280;11799;47.740;-3.390;2023-08-17T08:35:13;101318.06;;;21.57;100.00
23261;BME280;11799;47.740;-3.390;2023-08-17T08:37:39;101309.81;;;21.58;100.00
23261;BME280;11799;47.740;-3.390;2023-08-17T08:40:11;101316.16;;;21.65;100.00
23261;BME280;11799;47.740;-3.390;2023-08-17T08:42:37;101318.19;;;21.63;100.00
23261;BME280;11799;47.740;-3.390;2023-08-17T08:45:03;101323.72;;;21.62;100.00
23261;BME280;11799;47.740;-3.390;2023-08-17T08:47:32;101321.41;;;21.59;100.00
23261;BME280;11799;47.740;-3.390;2023-08-17T08:50:00;101314.19;;;21.59;100.00
23261;BME280;11799;47.740;-3.390;2023-08-17T08:52:34;101324.09;;;21.59;100.00
23261;BME280;11799;47.740;-3.390;2023-08-17T08:55:27;101311.66;;;21.58;100.00
23261;BME280;11799;47.740;-3.390;2023-08-17T08:57:55;101310.16;;;21.55;100.00
23261;BME280;11799;47.740;-3.390;2023-08-17T09:00:22;101305.56;;;21.64;100.00
23261;BME280;11799;47.740;-3.390;2023-08-17T09:02:48;101310.13;;;21.63;100.00
23261;BME280;11799;47.740;-3.390;2023-08-17T09:05:14;101304.25;;;21.60;100.00
23261;BME280;11799;47.740;-3.390;2023-08-17T09:07:42;101309.63;;;21.60;100.00
23261;BME280;11799;47.740;-3.390;2023-08-17T09:10:09;101309.47;;;21.61;100.00
23261;BME280;11799;47.740;-3.390;2023-08-17T09:12:35;101300.91;;;21.58;100.00
23261;BME280;11799;47.740;-3.390;2023-08-17T09:15:01;101305.56;;;21.64;100.00
23261;BME280;11799;47.740;-3.390;2023-08-17T09:17:27;101305.16;;;21.75;100.00
23261;BME280;11799;47.740;-3.390;2023-08-17T09:19:53;101298.75;;;21.76;100.00
23261;BME280;11799;47.740;-3.390;2023-08-17T09:22:45;101298.22;;;21.81;100.00
23261;BME280;11799;47.740;-3.390;2023-08-17T09:25:11;101300.25;;;21.79;100.00
23261;BME280;11799;47.740;-3.390;2023-08-17T09:27:47;101299.91;;;21.82;100.00
23261;BME280;11799;47.740;-3.390;2023-08-17T09:30:12;101293.88;;;21.80;100.00
23261;BME280;11799;47.740;-3.390;2023-08-17T09:32:38;101292.66;;;21.82;100.00
23261;BME280;11799;47.740;-3.390;2023-08-17T09:35:05;101292.19;;;21.79;100.00
23261;BME280;11799;47.740;-3.390;2023-08-17T09:37:32;101295.53;;;21.81;100.00
23261;BME280;11799;47.740;-3.390;2023-08-17T09:39:57;101297.69;;;21.85;100.00
23261;BME280;11799;47.740;-3.390;2023-08-17T09:42:23;101301.88;;;21.88;100.00
23261;BME280;11799;47.740;-3.390;2023-08-17T09:44:51;101307.72;;;21.91;100.00
23261;BME280;11799;47.740;-3.390;2023-08-17T09:47:17;101302.16;;;21.93;100.00
23261;BME280;11799;47.740;-3.390;2023-08-17T09:49:53;101293.25;;;21.92;100.00
23261;BME280;11799;47.740;-3.390;2023-08-17T09:52:20;101290.81;;;21.97;100.00
23261;BME280;11799;47.740;-3.390;2023-08-17T09:54:46;101291.28;;;22.01;100.00
23261;BME280;11799;47.740;-3.390;2023-08-17T09:57:13;101297.34;;;22.03;100.00
23261;BME280;11799;47.740;-3.390;2023-08-17T09:59:39;101297.66;;;22.08;100.00
23261;BME280;11799;47.740;-3.390;2023-08-17T10:02:15;101301.34;;;22.07;100.00
23261;BME280;11799;47.740;-3.390;2023-08-17T10:04:43;101298.13;;;22.12;100.00
23261;BME280;11799;47.740;-3.390;2023-08-17T10:07:09;101297.94;;;22.13;100.00
23261;BME280;11799;47.740;-3.390;2023-08-17T10:09:42;101289.97;;;22.20;100.00
23261;BME280;11799;47.740;-3.390;2023-08-17T10:12:10;101284.31;;;22.29;100.00
23261;BME280;11799;47.740;-3.390;2023-08-17T10:14:40;101286.00;;;22.30;100.00
23261;BME280;11799;47.740;-3.390;2023-08-17T10:17:14;101280.91;;;22.35;100.00
23261;BME280;11799;47.740;-3.390;2023-08-17T10:19:47;101274.22;;;22.31;100.00
23261;BME280;11799;47.740;-3.390;2023-08-17T10:22:26;101282.75;;;22.35;100.00
23261;BME280;11799;47.740;-3.390;2023-08-17T10:24:56;101289.06;;;22.42;100.00
23261;BME280;11799;47.740;-3.390;2023-08-17T10:27:22;101297.06;;;22.50;100.00
23261;BME280;11799;47.740;-3.390;2023-08-17T10:29:50;101289.88;;;22.57;100.00
23261;BME280;11799;47.740;-3.390;2023-08-17T10:32:16;101292.56;;;22.57;100.00
23261;BME280;11799;47.740;-3.390;2023-08-17T10:34:42;101283.66;;;22.57;100.00
23261;BME280;11799;47.740;-3.390;2023-08-17T10:37:09;101281.16;;;22.55;100.00
23261;BME280;11799;47.740;-3.390;2023-08-17T10:39:34;101271.22;;;22.70;100.00
23261;BME280;11799;47.740;-3.390;2023-08-17T10:42:02;101275.19;;;22.74;100.00
23261;BME280;11799;47.740;-3.390;2023-08-17T10:44:47;101275.94;;;22.68;100.00
23261;BME280;11799;47.740;-3.390;2023-08-17T10:49:51;101280.31;;;22.69;100.00
23261;BME280;11799;47.740;-3.390;2023-08-17T10:52:34;101276.03;;;22.75;100.00
23261;BME280;11799;47.740;-3.390;2023-08-17T10:55:07;101266.75;;;22.78;100.00
23261;BME280;11799;47.740;-3.390;2023-08-17T10:57:42;101275.66;;;22.78;100.00
23261;BME280;11799;47.740;-3.390;2023-08-17T11:02:37;101265.75;;;22.79;100.00
23261;BME280;11799;47.740;-3.390;2023-08-17T11:05:03;101266.41;;;22.81;100.00
23261;BME280;11799;47.740;-3.390;2023-08-17T11:07:44;101274.47;;;22.81;100.00
23261;BME280;11799;47.740;-3.390;2023-08-17T11:12:45;101254.50;;;22.90;100.00
23261;BME280;11799;47.740;-3.390;2023-08-17T11:15:11;101267.13;;;22.89;100.00
23261;BME280;11799;47.740;-3.390;2023-08-17T11:17:37;101257.84;;;22.92;100.00
23261;BME280;11799;47.740;-3.390;2023-08-17T11:20:03;101246.25;;;22.91;100.00
23261;BME280;11799;47.740;-3.390;2023-08-17T11:22:29;101251.06;;;22.96;100.00
23261;BME280;11799;47.740;-3.390;2023-08-17T11:24:55;101263.50;;;22.97;100.00
23261;BME280;11799;47.740;-3.390;2023-08-17T11:27:21;101257.00;;;22.91;100.00
23261;BME280;11799;47.740;-3.390;2023-08-17T11:29:47;101270.56;;;22.98;100.00
23261;BME280;11799;47.740;-3.390;2023-08-17T11:32:16;101258.38;;;23.02;100.00
23261;BME280;11799;47.740;-3.390;2023-08-17T11:34:42;101261.34;;;23.07;100.00
23261;BME280;11799;47.740;-3.390;2023-08-17T11:37:07;101254.50;;;23.11;100.00
23261;BME280;11799;47.740;-3.390;2023-08-17T11:39:34;101249.53;;;23.08;100.00
23261;BME280;11799;47.740;-3.390;2023-08-17T11:42:00;101254.78;;;23.16;100.00
23261;BME280;11799;47.740;-3.390;2023-08-17T11:44:25;101239.25;;;23.18;100.00
23261;BME280;11799;47.740;-3.390;2023-08-17T11:46:51;101259.97;;;23.18;100.00
23261;BME280;11799;47.740;-3.390;2023-08-17T11:49:17;101250.22;;;23.17;100.00
23261;BME280;11799;47.740;-3.390;2023-08-17T11:51:43;101247.59;;;23.23;100.00
23261;BME280;11799;47.740;-3.390;2023-08-17T11:54:08;101242.41;;;23.22;100.00
23261;BME280;11799;47.740;-3.390;2023-08-17T11:56:34;101245.34;;;23.27;100.00
23261;BME280;11799;47.740;-3.390;2023-08-17T11:59:08;101227.84;;;23.37;100.00
23261;BME280;11799;47.740;-3.390;2023-08-17T12:01:36;101232.47;;;23.44;100.00
23261;BME280;11799;47.740;-3.390;2023-08-17T12:04:06;101237.66;;;23.45;100.00
23261;BME280;11799;47.740;-3.390;2023-08-17T12:06:32;101238.13;;;23.49;100.00
23261;BME280;11799;47.740;-3.390;2023-08-17T12:08:58;101238.41;;;23.54;100.00
23261;BME280;11799;47.740;-3.390;2023-08-17T12:11:24;101238.56;;;23.52;100.00
23261;BME280;11799;47.740;-3.390;2023-08-17T12:13:53;101246.28;;;23.55;100.00
23261;BME280;11799;47.740;-3.390;2023-08-17T12:16:20;101242.56;;;23.56;100.00
23261;BME280;11799;47.740;-3.390;2023-08-17T12:18:52;101221.25;;;23.61;100.00
23261;BME280;11799;47.740;-3.390;2023-08-17T12:21:24;101227.94;;;23.65;100.00
23261;BME280;11799;47.740;-3.390;2023-08-17T12:23:50;101227.50;;;23.68;100.00
23261;BME280;11799;47.740;-3.390;2023-08-17T12:26:19;101221.97;;;23.77;100.00
23261;BME280;11799;47.740;-3.390;2023-08-17T12:28:45;101235.94;;;23.87;100.00
23261;BME280;11799;47.740;-3.390;2023-08-17T12:31:10;101232.41;;;23.86;100.00
23261;BME280;11799;47.740;-3.390;2023-08-17T12:33:36;101221.25;;;23.89;100.00
23261;BME280;11799;47.740;-3.390;2023-08-17T12:36:02;101219.47;;;24.03;100.00
23261;BME280;11799;47.740;-3.390;2023-08-17T12:38:27;101210.84;;;24.14;100.00